Time;durP1;ratioP1;P1;durP2;ratioP2;P2;SDS_P1;SDS_P2;PMS_P1;PMS_P2;Temp;Humidity;BMP_temperature;BMP_pressure;BME280_temperature;BME280_humidity;BME280_pressure;Samples;Min_cycle;Max_cycle;Signal;HPM_P1;HPM_P2
2022/07/18 00:01:44;;;;;;;7.25;3.42;;;;;;;10.02;66.42;101173.49;2185624;80;21003;-73
2022/07/18 00:04:45;;;;;;;3.90;2.95;;;;;;;9.98;66.22;101180.89;2186484;80;21533;-72
2022/07/18 00:07:47;;;;;;;6.37;3.77;;;;;;;9.90;66.47;101171.45;2186878;81;21011;-73
2022/07/18 00:10:48;;;;;;;9.98;3.70;;;;;;;9.85;66.56;101172.34;2185013;80;20966;-73
2022/07/18 00:13:52;;;;;;;13.93;4.33;;;;;;;9.81;66.62;101170.95;2190153;81;21638;-74
2022/07/18 00:16:53;;;;;;;7.97;3.80;;;;;;;9.78;66.70;101176.04;2186245;81;21043;-73
2022/07/18 00:19:54;;;;;;;11.03;4.50;;;;;;;9.78;66.68;101171.23;2183245;81;21004;-73
2022/07/18 00:22:56;;;;;;;8.15;4.83;;;;;;;9.73;66.84;101176.92;2185624;80;20977;-74
2022/07/18 00:25:57;;;;;;;10.55;5.12;;;;;;;9.68;66.83;101167.70;2167553;81;21536;-73
2022/07/18 00:28:58;;;;;;;9.50;4.55;;;;;;;9.66;67.53;101159.91;2167595;81;21562;-74
2022/07/18 00:31:59;;;;;;;10.82;4.15;;;;;;;9.58;67.51;101160.58;2166766;81;20975;-73
2022/07/18 00:35:00;;;;;;;8.98;4.40;;;;;;;9.55;67.45;101161.34;2165126;81;20984;-73
2022/07/18 00:38:02;;;;;;;7.67;4.80;;;;;;;9.55;67.48;101165.31;2166183;81;21038;-73
2022/07/18 00:41:07;;;;;;;8.68;4.45;;;;;;;9.53;67.37;101161.46;2165890;82;21547;-73
2022/07/18 00:44:18;;;;;;;11.18;4.67;;;;;;;9.48;67.64;101158.86;2167877;81;20982;-73
2022/07/18 00:47:19;;;;;;;6.87;3.77;;;;;;;9.44;67.49;101154.33;2170687;81;21424;-73
2022/07/18 00:50:22;;;;;;;6.25;3.58;;;;;;;9.34;68.15;101151.63;2166142;82;21010;-73
2022/07/18 00:53:26;;;;;;;13.65;4.03;;;;;;;9.24;68.56;101154.73;2167875;82;21485;-74
2022/07/18 00:56:27;;;;;;;7.87;4.12;;;;;;;9.21;68.68;101162.95;2163968;82;21015;-73
2022/07/18 01:02:49;;;;;;;12.90;4.78;;;;;;;9.19;68.69;101147.67;2166030;82;20963;-73
2022/07/18 01:05:50;;;;;;;4.28;3.22;;;;;;;9.16;68.83;101155.39;2168086;80;21027;-72
2022/07/18 01:08:51;;;;;;;5.05;2.72;;;;;;;9.16;68.79;101154.56;2164141;82;21025;-73
2022/07/18 01:11:52;;;;;;;8.45;3.17;;;;;;;9.09;68.61;101155.55;2170508;81;21006;-73
2022/07/18 01:14:55;;;;;;;8.05;3.55;;;;;;;9.03;68.54;101156.58;2168121;81;21078;-72
2022/07/18 01:17:56;;;;;;;7.53;3.08;;;;;;;9.01;68.70;101161.15;2171831;82;21343;-72
2022/07/18 01:20:57;;;;;;;3.60;2.72;;;;;;;8.99;68.99;101158.66;2170846;81;21598;-74
2022/07/18 01:23:58;;;;;;;3.60;2.87;;;;;;;8.93;68.88;101151.23;2167522;81;21093;-73
2022/07/18 01:27:00;;;;;;;6.47;2.40;;;;;;;8.92;68.72;101150.86;2184507;81;21034;-72
2022/07/18 01:30:01;;;;;;;3.35;2.60;;;;;;;8.90;68.92;101155.47;2185028;81;21001;-72
2022/07/18 01:33:03;;;;;;;6.40;2.52;;;;;;;8.89;68.90;101161.72;2188780;80;20962;-72
2022/07/18 01:36:06;;;;;;;2.80;2.50;;;;;;;8.88;68.97;101160.88;2187349;80;21037;-72
2022/07/18 01:39:07;;;;;;;5.22;2.87;;;;;;;8.82;68.92;101162.73;2178885;80;21078;-73
2022/07/18 01:42:10;;;;;;;4.62;3.00;;;;;;;8.77;68.94;101159.63;2185884;80;21102;-73
2022/07/18 01:45:15;;;;;;;5.17;2.67;;;;;;;8.73;69.10;101156.41;2182657;80;21031;-73
2022/07/18 01:48:16;;;;;;;3.45;2.62;;;;;;;8.74;69.08;101165.19;2182810;80;20983;-72
2022/07/18 01:51:17;;;;;;;4.35;2.92;;;;;;;8.73;69.19;101164.84;2186065;80;21096;-72
2022/07/18 01:54:24;;;;;;;5.62;2.60;;;;;;;8.70;69.23;101165.07;2184468;81;21368;-73
2022/07/18 01:57:25;;;;;;;3.20;2.87;;;;;;;8.69;69.00;101174.82;2187966;81;20976;-72
2022/07/18 02:00:26;;;;;;;4.90;2.83;;;;;;;8.69;69.39;101168.70;2182667;81;20968;-73
2022/07/18 02:03:27;;;;;;;3.98;3.12;;;;;;;8.70;69.67;101162.42;2186205;81;20970;-72
2022/07/18 02:06:28;;;;;;;5.40;2.72;;;;;;;8.69;69.68;101168.70;2184054;81;21055;-75
2022/07/18 02:09:29;;;;;;;4.08;2.90;;;;;;;8.66;69.60;101176.41;2182495;80;21017;-72
2022/07/18 02:12:30;;;;;;;6.37;2.98;;;;;;;8.60;69.56;101171.63;2184482;81;21001;-73
2022/07/18 02:15:31;;;;;;;6.47;3.12;;;;;;;8.54;69.62;101165.53;2184777;80;21503;-73
2022/07/18 02:18:33;;;;;;;4.33;2.42;;;;;;;8.56;70.03;101177.30;2184695;81;20964;-73
2022/07/18 02:21:34;;;;;;;3.70;2.60;;;;;;;8.59;70.11;101169.10;2183497;81;21494;-73
2022/07/18 02:24:34;;;;;;;;;;;;;;;8.61;70.09;101175.11;2183176;80;21048;-73
2022/07/18 02:27:36;;;;;;;4.33;2.95;;;;;;;8.59;70.21;101181.00;2183171;80;20236;-73
2022/07/18 02:30:37;;;;;;;7.15;3.10;;;;;;;8.57;70.36;101178.99;2181503;80;21035;-73
2022/07/18 02:33:37;;;;;;;;;;;;;;;8.57;70.30;101181.64;2181493;80;21561;-72
2022/07/18 02:36:41;;;;;;;6.25;2.90;;;;;;;8.58;70.40;101176.69;2182516;80;20435;-73
2022/07/18 02:39:42;;;;;;;3.77;3.05;;;;;;;8.57;70.36;101181.15;2177858;80;21526;-74
2022/07/18 02:42:44;;;;;;;7.53;3.05;;;;;;;8.57;70.46;101175.86;2180280;80;21074;-73
2022/07/18 02:45:45;;;;;;;4.97;3.30;;;;;;;8.58;70.44;101168.27;2184536;80;21078;-73
2022/07/18 02:48:46;;;;;;;5.15;3.37;;;;;;;8.57;70.62;101169.73;2185099;80;20945;-73
2022/07/18 02:51:46;;;;;;;;;;;;;;;8.59;70.87;101171.75;2184562;80;21446;-73
2022/07/18 02:54:47;;;;;;;5.62;3.37;;;;;;;8.58;70.97;101176.69;2184494;80;20147;-73
2022/07/18 02:57:50;;;;;;;5.30;4.00;;;;;;;8.59;70.87;101175.71;2135141;82;21087;-73
2022/07/18 03:00:50;;;;;;;4.70;4.03;;;;;;;8.62;70.97;101178.12;2140516;82;21485;-73
2022/07/18 03:03:51;;;;;;;;;;;;;;;8.57;71.23;101171.06;2153499;81;21022;-74
2022/07/18 03:06:53;;;;;;;5.62;4.00;;;;;;;8.54;71.45;101165.53;2149709;81;20216;-74
2022/07/18 03:09:54;;;;;;;6.50;3.90;;;;;;;8.54;71.65;101168.18;2147784;81;21571;-72
2022/07/18 03:12:55;;;;;;;7.47;3.75;;;;;;;8.57;71.63;101172.38;2149269;81;20936;-73
2022/07/18 03:15:56;;;;;;;;;;;;;;;8.60;71.74;101166.83;2156892;81;21079;-73
2022/07/18 03:18:58;;;;;;;4.70;3.30;;;;;;;8.60;71.73;101176.92;2151620;81;20201;-72
2022/07/18 03:21:59;;;;;;;7.33;3.67;;;;;;;8.63;71.89;101177.98;2150235;81;20956;-72
2022/07/18 03:25:00;;;;;;;;;;;;;;;8.69;72.06;101182.76;2159913;81;20984;-73
2022/07/18 03:28:01;;;;;;;8.90;4.10;;;;;;;8.65;72.07;101180.03;2164439;81;20120;-72
2022/07/18 03:31:03;;;;;;;5.42;3.75;;;;;;;8.67;72.36;101167.52;2159687;82;21079;-74
2022/07/18 03:34:04;;;;;;;4.47;3.33;;;;;;;8.70;72.32;101174.33;2162376;81;20975;-72
2022/07/18 03:37:06;;;;;;;5.83;3.72;;;;;;;8.74;72.43;101179.73;2156666;82;21435;-73
2022/07/18 03:40:08;;;;;;;4.45;3.55;;;;;;;8.78;72.57;101174.53;2144874;82;21066;-73
2022/07/18 03:43:09;;;;;;;4.92;3.87;;;;;;;8.87;72.66;101168.94;2192984;80;21053;-72
2022/07/18 03:46:11;;;;;;;4.83;4.12;;;;;;;8.93;72.59;101171.09;2170326;81;20939;-73
2022/07/18 03:49:12;;;;;;;6.70;3.65;;;;;;;9.03;72.64;101175.10;2175545;81;21043;-74
2022/07/18 03:52:13;;;;;;;8.00;3.98;;;;;;;9.11;72.73;101172.16;2176716;81;21505;-73
2022/07/18 03:55:14;;;;;;;;;;;;;;;9.19;72.73;101174.16;2178086;81;21056;-73
2022/07/18 03:58:15;;;;;;;4.58;3.70;;;;;;;9.29;72.90;101175.50;2172588;81;20096;-73
2022/07/18 04:01:16;;;;;;;4.17;3.67;;;;;;;9.31;72.81;101181.02;2176410;81;21038;-72
2022/07/18 04:04:18;;;;;;;7.45;4.33;;;;;;;9.32;72.87;101181.40;2174677;81;20994;-72
2022/07/18 04:07:19;;;;;;;5.20;3.42;;;;;;;9.32;73.00;101186.70;2176334;81;20991;-73
2022/07/18 04:10:20;;;;;;;7.05;3.55;;;;;;;9.43;73.16;101190.58;2171869;81;20984;-75
2022/07/18 04:13:21;;;;;;;10.38;3.90;;;;;;;9.58;73.25;101190.21;2178695;81;20991;-73
2022/07/18 04:16:22;;;;;;;6.08;4.03;;;;;;;9.72;73.20;101195.14;2178746;81;21011;-74
2022/07/18 04:19:26;;;;;;;5.53;3.95;;;;;;;9.85;73.23;101192.23;2171078;81;21057;-73
2022/07/18 04:22:27;;;;;;;6.47;4.00;;;;;;;9.99;73.23;101201.61;2175399;82;21015;-73
2022/07/18 04:25:36;;;;;;;7.85;3.92;;;;;;;10.16;73.29;101198.78;2179193;81;21200;-72
2022/07/18 04:28:37;;;;;;;9.60;4.40;;;;;;;10.38;73.36;101195.06;2173329;81;21023;-74
2022/07/18 04:31:38;;;;;;;4.30;3.90;;;;;;;10.53;73.30;101196.31;2175074;81;21015;-73
2022/07/18 04:34:39;;;;;;;5.95;4.05;;;;;;;10.68;73.33;101186.95;2173576;81;21616;-74
2022/07/18 04:37:41;;;;;;;9.43;4.00;;;;;;;10.91;73.35;101184.82;2174027;81;21105;-72
2022/07/18 04:40:42;;;;;;;7.30;4.25;;;;;;;11.30;73.28;101186.55;2172979;81;21045;-73
2022/07/18 04:43:43;;;;;;;9.20;4.60;;;;;;;11.76;72.96;101181.63;2176345;81;21023;-73
2022/07/18 04:46:44;;;;;;;8.10;4.50;;;;;;;12.20;72.51;101179.64;2174420;81;21002;-73
2022/07/18 04:49:45;;;;;;;8.58;4.10;;;;;;;12.54;72.04;101179.28;2173224;81;21479;-73
2022/07/18 04:52:48;;;;;;;6.83;3.58;;;;;;;13.07;71.74;101176.68;2180087;82;21015;-72
2022/07/18 04:55:49;;;;;;;6.75;4.15;;;;;;;13.61;71.26;101176.80;2174809;81;22190;-73
2022/07/18 04:58:50;;;;;;;6.80;4.28;;;;;;;14.06;70.73;101172.11;2178133;81;21027;-73
2022/07/18 05:01:51;;;;;;;8.85;4.10;;;;;;;14.18;69.46;101166.78;2174787;81;20999;-73
2022/07/18 05:04:52;;;;;;;8.48;4.08;;;;;;;14.22;69.27;101168.61;2173848;81;21019;-74
2022/07/18 05:07:55;;;;;;;7.03;4.05;;;;;;;15.49;69.20;101157.30;2171408;81;21501;-73
2022/07/18 05:10:57;;;;;;;7.80;3.85;;;;;;;15.49;69.20;101157.30;2172578;80;21437;-72
2022/07/18 05:13:58;;;;;;;15.88;4.45;;;;;;;16.08;68.07;101160.86;2174224;81;20983;-74
2022/07/18 05:16:59;;;;;;;8.13;3.58;;;;;;;16.62;66.81;101164.80;2176192;81;21050;-73
2022/07/18 05:20:00;;;;;;;5.60;3.67;;;;;;;17.18;66.25;101163.11;2175933;81;21045;-74
2022/07/18 05:23:01;;;;;;;4.75;3.22;;;;;;;17.78;65.32;101160.70;2175383;81;21043;-73
2022/07/18 05:26:02;;;;;;;6.75;3.40;;;;;;;18.33;64.25;101155.20;2174678;81;21042;-74
2022/07/18 05:29:04;;;;;;;5.90;3.83;;;;;;;18.80;63.38;101160.98;2173193;81;21337;-75
2022/07/18 05:32:07;;;;;;;6.42;3.45;;;;;;;19.17;62.69;101158.42;2170925;81;21001;-74
2022/07/18 05:35:10;;;;;;;4.62;3.58;;;;;;;19.66;61.78;101157.98;2176335;81;21037;-73
2022/07/18 05:38:11;;;;;;;6.92;3.52;;;;;;;19.99;60.89;101161.28;2171898;81;21054;-74
2022/07/18 05:41:12;;;;;;;8.10;3.47;;;;;;;20.31;60.53;101163.74;2169718;81;21025;-74
2022/07/18 05:44:13;;;;;;;6.45;3.52;;;;;;;20.77;59.56;101161.59;2182634;81;21033;-74
2022/07/18 05:47:14;;;;;;;8.45;3.95;;;;;;;21.05;58.72;101168.92;2184317;80;21454;-73
2022/07/18 05:50:16;;;;;;;8.63;3.75;;;;;;;21.21;58.19;101168.18;2184837;80;20961;-73
2022/07/18 05:53:17;;;;;;;5.25;3.30;;;;;;;21.72;57.76;101162.00;2185306;81;21086;-75
2022/07/18 05:56:18;;;;;;;6.28;3.85;;;;;;;22.14;56.83;101164.56;2181293;81;20984;-74
2022/07/18 05:59:21;;;;;;;10.48;3.37;;;;;;;21.97;55.85;101158.55;2183008;80;21462;-75
2022/07/18 06:02:22;;;;;;;6.00;3.60;;;;;;;21.88;55.79;101160.16;2184077;80;21066;-76
2022/07/18 06:05:23;;;;;;;7.72;3.58;;;;;;;21.86;55.30;101155.48;2183252;81;21063;-78
2022/07/18 06:08:25;;;;;;;10.28;3.45;;;;;;;21.99;55.18;101156.44;2184046;81;21007;-78
2022/07/18 06:11:27;;;;;;;10.32;3.70;;;;;;;21.88;53.83;101152.05;2182357;80;20949;-75
2022/07/18 06:14:31;;;;;;;5.83;3.42;;;;;;;22.03;54.09;101157.16;2184468;81;21006;-74
2022/07/18 06:17:34;;;;;;;8.28;3.22;;;;;;;22.12;53.54;101159.07;2184770;80;21561;-76
2022/07/18 06:20:37;;;;;;;5.28;3.12;;;;;;;22.10;53.38;101155.25;2153282;80;21533;-80
2022/07/18 06:23:40;;;;;;;6.40;3.35;;;;;;;22.34;53.29;101159.58;2183208;81;22287;-79
2022/07/18 06:26:41;;;;;;;9.13;3.20;;;;;;;22.45;52.67;101154.81;2182602;81;21089;-80
2022/07/18 06:29:42;;;;;;;4.33;2.40;;;;;;;22.84;52.17;101159.58;2180234;80;20956;-78
2022/07/18 06:32:44;;;;;;;7.17;2.60;;;;;;;23.37;51.25;101156.85;2182143;80;21516;-79
2022/07/18 06:35:47;;;;;;;6.90;3.30;;;;;;;23.87;50.90;101156.13;2177948;80;21073;-79
2022/07/18 06:38:53;;;;;;;6.45;2.80;;;;;;;24.39;50.16;101157.77;2181755;80;21093;-80
2022/07/18 06:41:56;;;;;;;4.92;2.17;;;;;;;24.83;49.30;101154.25;2181510;80;21684;-79
2022/07/18 06:44:59;;;;;;;7.78;2.95;;;;;;;25.29;48.66;101150.92;2149929;81;21147;-79
2022/07/18 06:48:09;;;;;;;3.67;2.02;;;;;;;25.75;47.74;101151.30;2186721;80;20970;-80
2022/07/18 06:51:10;;;;;;;;;;;;;;;25.87;46.63;101148.02;2185394;80;21062;-81
2022/07/18 06:54:14;;;;;;;3.15;1.98;;;;;;;26.27;45.84;101144.91;2186172;81;20169;-79
2022/07/18 06:57:31;;;;;;;6.87;2.27;;;;;;;26.67;45.23;101136.62;2179586;80;21332;-80
2022/07/18 07:00:41;;;;;;;4.30;1.90;;;;;;;26.93;44.81;101143.25;2182154;80;20956;-79
2022/07/18 07:03:48;;;;;;;5.08;2.00;;;;;;;27.32;43.80;101137.81;2178452;81;21038;-82
2022/07/18 07:06:57;;;;;;;5.17;1.77;;;;;;;27.62;43.29;101133.78;2177979;80;21056;-79
2022/07/18 07:09:58;;;;;;;7.33;2.25;;;;;;;27.97;42.22;101136.09;2176806;81;21056;-79
2022/07/18 07:12:59;;;;;;;4.53;2.00;;;;;;;27.97;41.16;101132.00;2186935;80;20998;-76
2022/07/18 07:16:00;;;;;;;4.40;2.05;;;;;;;27.97;39.79;101130.64;2187935;80;20967;-84
2022/07/18 07:19:01;;;;;;;3.62;1.82;;;;;;;27.99;39.70;101131.21;2186391;80;20980;-85
2022/07/18 07:22:02;;;;;;;7.20;2.20;;;;;;;28.16;39.58;101133.82;2182501;80;21097;-76
2022/07/18 07:25:04;;;;;;;4.45;1.98;;;;;;;28.32;38.88;101126.02;2181914;80;21002;-81
2022/07/18 07:28:07;;;;;;;4.55;1.70;;;;;;;28.38;38.08;101129.09;2163043;81;21057;-81
2022/07/18 07:31:08;;;;;;;2.80;1.85;;;;;;;28.21;38.06;101134.39;2166039;82;21085;-79
2022/07/18 07:34:11;;;;;;;4.58;1.80;;;;;;;28.52;37.70;101127.30;2164912;82;21040;-84
2022/07/18 07:37:12;;;;;;;4.30;1.50;;;;;;;28.69;37.14;101132.59;2164159;81;21037;-82
2022/07/18 07:40:15;;;;;;;3.70;1.40;;;;;;;28.93;36.13;101129.74;2170794;80;21538;-86
2022/07/18 07:43:16;;;;;;;3.37;1.47;;;;;;;29.13;36.24;101127.69;2169824;81;21009;-83
2022/07/18 07:46:17;;;;;;;2.85;1.55;;;;;;;29.40;35.27;101121.25;2164213;80;20999;-73
2022/07/18 07:49:18;;;;;;;4.28;1.70;;;;;;;29.49;34.18;101112.25;2157835;81;22410;-79
2022/07/18 07:52:20;;;;;;;3.95;1.52;;;;;;;29.55;34.14;101110.90;2165780;82;21601;-81
2022/07/18 07:55:42;;;;;;;;;;;;;;;;;;;;;
2022/07/18 07:58:36;;;;;;;3.00;1.50;;;;;;;29.69;33.55;101106.58;2161160;81;21567;-78
2022/07/18 08:01:49;;;;;;;12.47;2.20;;;;;;;29.76;32.61;101106.31;2158545;82;21644;-77
2022/07/18 08:05:19;;;;;;;3.98;1.40;;;;;;;29.85;32.27;101106.89;2166712;81;21019;-80
2022/07/18 08:08:20;;;;;;;;;;;;;;;29.88;31.43;101103.61;2166146;80;21078;-73
2022/07/18 08:11:38;;;;;;;3.52;1.45;;;;;;;30.01;30.99;101102.78;2169952;80;20109;-73
2022/07/18 08:14:41;;;;;;;3.17;1.40;;;;;;;29.94;31.38;101104.43;2155702;80;21106;-73
2022/07/18 08:17:45;;;;;;;2.52;1.40;;;;;;;29.86;31.23;101107.70;2165846;81;21068;-82
2022/07/18 08:20:51;;;;;;;2.62;1.40;;;;;;;29.69;30.59;101105.22;2157109;82;21020;-72
2022/07/18 08:23:53;;;;;;;1.95;1.25;;;;;;;29.57;31.40;101102.70;2160073;82;21030;-69
2022/07/18 08:27:04;;;;;;;6.60;1.72;;;;;;;29.66;30.72;101097.55;2174514;80;21049;-68
2022/07/18 08:30:20;;;;;;;3.33;1.67;;;;;;;29.84;30.80;101095.66;2180898;81;21061;-81
2022/07/18 08:37:09;;;;;;;;;;;;;;;;;;;;;
2022/07/18 08:40:14;;;;;;;2.33;1.50;;;;;;;29.87;29.82;101094.29;2111271;81;21004;-81
2022/07/18 08:43:21;;;;;;;3.75;1.52;;;;;;;30.07;30.13;101094.84;2182461;80;21011;-82
2022/07/18 08:46:34;;;;;;;3.33;1.50;;;;;;;30.28;29.38;101091.60;2180360;80;21562;-81
2022/07/18 08:49:36;;;;;;;2.30;1.50;;;;;;;30.23;29.95;101091.05;2172692;80;21042;-81
2022/07/18 08:52:58;;;;;;;;;;;;;;;;;;;;;
2022/07/18 08:56:02;;;;;;;3.58;1.50;;;;;;;30.51;29.44;101091.02;2168774;80;21027;-81
2022/07/18 08:59:15;;;;;;;2.15;1.37;;;;;;;30.61;29.11;101087.45;2178545;81;21037;-82
2022/07/18 09:02:37;;;;;;;2.33;1.52;;;;;;;30.31;28.56;101089.12;2182754;80;21636;-81
2022/07/18 09:05:27;;;;;;;1.70;1.37;;;;;;;30.24;28.69;101088.60;2158644;80;21046;-81
2022/07/18 09:08:29;;;;;;;4.92;1.35;;;;;;;30.51;29.15;101092.94;2179029;80;21019;-85
2022/07/18 09:11:34;;;;;;;3.72;1.45;;;;;;;30.62;28.59;101086.34;2179335;80;20991;-81
2022/07/18 09:15:24;;;;;;;5.10;1.60;;;;;;;30.34;28.82;101089.94;2161180;81;21094;-80
2022/07/18 09:18:54;;;;;;;3.05;1.62;;;;;;;29.98;27.59;101087.73;2090278;84;21017;-82
2022/07/18 09:22:30;;;;;;;2.33;1.40;;;;;;;29.82;28.36;101094.28;2095518;83;21136;-73
2022/07/18 09:25:34;;;;;;;3.90;1.52;;;;;;;29.52;28.42;101097.77;2100565;84;21323;-78
2022/07/18 09:28:52;;;;;;;3.83;1.67;;;;;;;29.67;28.39;101091.80;2165718;80;21038;-82
2022/07/18 09:31:56;;;;;;;1.77;1.40;;;;;;;29.45;28.53;101093.39;2180601;80;21034;-81
2022/07/18 09:35:10;;;;;;;2.83;1.30;;;;;;;29.33;26.69;101081.85;2186638;80;21482;-85
2022/07/18 09:38:15;;;;;;;2.25;1.30;;;;;;;29.17;28.51;101086.46;2149905;81;21447;-84
2022/07/18 09:41:23;;;;;;;3.27;1.72;;;;;;;29.52;28.26;101077.27;2186922;80;21536;-83
2022/07/18 09:44:38;;;;;;;3.70;1.77;;;;;;;29.80;28.25;101077.34;2180193;80;20976;-85
2022/07/18 09:48:07;;;;;;;4.80;1.50;;;;;;;29.70;28.48;101069.38;2180651;80;21041;-85
2022/07/18 09:51:28;;;;;;;2.62;1.37;;;;;;;29.78;28.21;101072.69;2173825;80;21042;-84
2022/07/18 09:54:55;;;;;;;;;;;;;;;29.73;28.30;101065.83;2151465;80;21574;-84
2022/07/18 09:58:25;;;;;;;4.47;1.77;;;;;;;29.68;27.94;101063.94;2183389;80;20157;-84
2022/07/18 10:01:35;;;;;;;3.45;1.60;;;;;;;29.42;28.23;101070.66;2170867;80;21604;-85
2022/07/18 10:04:51;;;;;;;6.35;1.75;;;;;;;29.48;28.26;101071.49;2154542;82;21022;-85
2022/07/18 10:08:01;;;;;;;4.97;1.70;;;;;;;29.51;27.88;101070.98;2245282;78;22470;-84
2022/07/18 10:11:10;;;;;;;4.78;1.95;;;;;;;29.63;28.55;101062.55;2243433;78;21065;-85
2022/07/18 10:14:18;;;;;;;3.83;1.55;;;;;;;29.82;28.11;101057.36;2246939;78;21041;-86
2022/07/18 10:17:31;;;;;;;3.98;1.90;;;;;;;29.94;28.53;101064.21;2244181;78;20955;-85
2022/07/18 10:20:56;;;;;;;4.95;1.77;;;;;;;29.92;27.55;101059.55;2241014;78;21013;-86
2022/07/18 10:24:02;;;;;;;3.08;1.70;;;;;;;29.78;27.78;101062.55;2243364;78;22462;-85
2022/07/18 10:27:19;;;;;;;4.28;2.12;;;;;;;29.94;27.87;101062.84;2242033;78;21006;-86
2022/07/18 10:30:39;;;;;;;4.70;1.80;;;;;;;30.20;27.42;101062.83;2243256;78;20967;-85
2022/07/18 10:33:48;;;;;;;3.27;1.85;;;;;;;30.47;27.49;101057.64;2184077;78;20990;-85
2022/07/18 10:37:09;;;;;;;2.83;1.52;;;;;;;30.72;27.32;101052.61;2239996;78;21559;-85
2022/07/18 10:40:27;;;;;;;8.38;1.55;;;;;;;30.73;27.44;101056.45;2244112;78;21099;-85
2022/07/18 10:43:41;;;;;;;2.83;1.65;;;;;;;30.93;27.21;101049.30;2234003;78;20989;-86
2022/07/18 10:47:17;;;;;;;2.40;1.40;;;;;;;30.81;27.44;101049.06;2241963;78;21001;-84
2022/07/18 10:50:19;;;;;;;5.53;1.60;;;;;;;30.47;27.15;101046.13;2244615;78;21037;-86
2022/07/18 10:53:47;;;;;;;4.70;1.50;;;;;;;30.47;27.05;101046.69;2136934;82;21582;-85
2022/07/18 10:57:13;;;;;;;2.25;1.40;;;;;;;30.34;27.09;101043.95;2100470;83;21546;-85
2022/07/18 11:00:38;;;;;;;8.00;1.70;;;;;;;30.45;27.36;101032.45;2104693;82;21657;-85
2022/07/18 11:03:50;;;;;;;2.52;1.67;;;;;;;30.62;27.22;101037.60;2151621;79;21109;-87
2022/07/18 11:07:13;;;;;;;2.70;1.70;;;;;;;30.25;27.75;101036.05;2246251;78;21468;-87
2022/07/18 11:10:50;;;;;;;4.53;1.72;;;;;;;30.21;27.06;101034.36;2240194;78;21072;-86
2022/07/18 11:13:53;;;;;;;4.50;1.82;;;;;;;30.15;27.35;101030.80;2240449;78;21013;-88
2022/07/18 11:17:09;;;;;;;6.05;1.80;;;;;;;30.09;27.52;101022.89;2239598;78;21001;-87
2022/07/18 11:20:42;;;;;;;1.82;1.30;;;;;;;30.11;27.61;101020.70;2237177;78;21052;-86
2022/07/18 11:24:08;;;;;;;4.33;1.87;;;;;;;30.07;27.79;101019.08;2240803;78;20955;-86
2022/07/18 11:27:19;;;;;;;4.28;1.90;;;;;;;30.15;27.70;101013.57;2250171;78;21489;-87
2022/07/18 11:30:32;;;;;;;2.72;1.92;;;;;;;30.24;27.70;101008.38;2250383;78;21582;-87
2022/07/18 11:33:41;;;;;;;4.70;1.60;;;;;;;30.09;27.04;101006.47;2258847;78;21544;-86
2022/07/18 11:36:56;;;;;;;4.42;1.57;;;;;;;30.04;26.71;100998.27;2255215;78;21079;-86
2022/07/18 11:40:14;;;;;;;3.67;1.90;;;;;;;30.04;27.10;100984.58;2258321;78;21012;-87
2022/07/18 11:43:24;;;;;;;3.27;1.92;;;;;;;29.75;26.14;100990.63;2255254;78;21048;-89
2022/07/18 11:46:27;;;;;;;3.75;2.00;;;;;;;29.76;26.27;100980.50;2254363;78;21024;-87
2022/07/18 11:49:28;;;;;;;2.95;1.80;;;;;;;29.62;25.08;100976.09;2256906;78;21497;-85
2022/07/18 11:52:32;;;;;;;4.85;1.90;;;;;;;29.41;27.21;100981.56;2257784;78;21056;-86
2022/07/18 11:55:36;;;;;;;2.95;2.00;;;;;;;29.42;27.10;100978.27;2258109;77;21004;-86
2022/07/18 11:58:40;;;;;;;4.03;1.95;;;;;;;29.47;27.30;100979.66;2257440;78;21005;-86
2022/07/18 12:01:44;;;;;;;6.05;2.12;;;;;;;29.53;27.54;100976.37;2258722;77;21653;-85
2022/07/18 12:04:46;;;;;;;3.58;1.60;;;;;;;29.51;27.65;100973.93;2212937;79;20982;-86
2022/07/18 12:07:50;;;;;;;2.37;1.65;;;;;;;29.51;26.89;100979.40;2163804;81;21097;-86
2022/07/18 12:11:34;;;;;;;3.17;2.05;;;;;;;29.22;27.75;100972.23;2215160;79;21024;-86
2022/07/18 12:14:37;;;;;;;4.67;2.12;;;;;;;29.26;27.17;100967.34;2215028;79;22362;-86
2022/07/18 12:17:50;;;;;;;4.03;2.00;;;;;;;29.28;26.85;100964.31;2212115;79;21028;-85
2022/07/18 12:21:08;;;;;;;4.90;1.98;;;;;;;29.25;27.44;100960.21;2193324;80;21083;-86
2022/07/18 12:24:38;;;;;;;7.42;1.80;;;;;;;29.34;26.16;100956.42;2193480;80;21026;-85
2022/07/18 12:27:39;;;;;;;6.37;1.98;;;;;;;29.25;27.16;100956.11;2180170;80;21013;-86
2022/07/18 12:30:40;;;;;;;5.92;2.20;;;;;;;29.33;28.04;100956.68;2172523;81;21099;-83
2022/07/18 12:33:47;;;;;;;4.65;1.87;;;;;;;29.43;28.04;100949.87;2176591;80;20997;-81
2022/07/18 12:36:57;;;;;;;4.05;1.85;;;;;;;29.39;28.43;100944.10;2171196;81;22463;-73
2022/07/18 12:40:09;;;;;;;5.60;1.82;;;;;;;29.43;28.42;100944.40;2171609;81;21457;-86
2022/07/18 12:43:26;;;;;;;5.70;2.22;;;;;;;29.36;28.76;100941.91;2170501;81;21060;-86
2022/07/18 12:46:27;;;;;;;6.20;1.82;;;;;;;29.37;27.83;100940.84;2173322;81;20962;-84
2022/07/18 12:49:28;;;;;;;6.03;2.30;;;;;;;29.13;27.22;100909.11;2175003;82;21042;-83
2022/07/18 12:52:29;;;;;;;4.78;1.90;;;;;;;29.09;27.04;100928.52;2172503;80;20991;-85
2022/07/18 12:55:31;;;;;;;5.83;1.72;;;;;;;29.00;27.74;100925.98;2175700;81;21017;-81
2022/07/18 12:58:33;;;;;;;6.50;2.17;;;;;;;29.01;27.83;100923.00;2174921;81;20952;-83
2022/07/18 13:01:35;;;;;;;3.98;1.62;;;;;;;28.95;28.15;100924.63;2176511;81;21074;-81
2022/07/18 13:04:36;;;;;;;3.60;1.75;;;;;;;28.97;27.70;100918.33;2179212;81;20928;-83
2022/07/18 13:07:41;;;;;;;5.72;1.80;;;;;;;29.00;27.99;100913.17;2175129;81;21051;-83
2022/07/18 13:10:42;;;;;;;2.30;1.30;;;;;;;28.98;27.73;100893.49;2176774;81;21003;-83
2022/07/18 13:13:44;;;;;;;3.65;1.60;;;;;;;28.98;27.73;100893.49;2172143;81;21077;-83
2022/07/18 13:16:48;;;;;;;2.55;1.47;;;;;;;28.93;27.80;100896.77;2175575;81;21069;-83
2022/07/18 13:19:49;;;;;;;5.03;1.60;;;;;;;28.82;27.71;100895.36;2173411;80;21086;-84
2022/07/18 13:22:51;;;;;;;4.15;1.80;;;;;;;28.82;27.71;100895.36;2176606;80;21391;-84
2022/07/18 13:25:52;;;;;;;2.12;1.80;;;;;;;28.87;27.95;100906.86;2180017;81;21474;-84
2022/07/18 13:28:55;;;;;;;5.80;1.70;;;;;;;28.80;27.80;100904.91;2173335;81;21548;-84
2022/07/18 13:31:56;;;;;;;3.70;1.50;;;;;;;28.80;27.80;100904.91;2173619;80;21042;-84
2022/07/18 13:34:58;;;;;;;2.87;1.80;;;;;;;28.75;28.39;100911.75;2178034;80;21018;-84
2022/07/18 13:37:59;;;;;;;3.05;1.70;;;;;;;28.77;28.02;100902.17;2176742;81;20962;-82
2022/07/18 13:41:01;;;;;;;5.30;1.57;;;;;;;28.75;28.73;100910.39;2175880;81;21089;-79
2022/07/18 13:44:04;;;;;;;6.80;2.00;;;;;;;28.64;28.38;100908.72;2163879;81;21045;-80
2022/07/18 13:47:05;;;;;;;2.98;1.70;;;;;;;28.62;28.66;100899.97;2173674;81;21017;-79
2022/07/18 13:50:09;;;;;;;5.40;1.77;;;;;;;28.68;28.92;100896.16;2173372;81;20989;-79
2022/07/18 13:53:10;;;;;;;3.40;1.75;;;;;;;28.73;28.76;100903.81;2172698;81;21025;-79
2022/07/18 13:56:12;;;;;;;2.25;1.90;;;;;;;28.73;28.76;100903.81;2175385;81;21488;-77
2022/07/18 13:59:14;;;;;;;2.60;1.80;;;;;;;28.64;28.21;100896.43;2175496;81;20962;-77
2022/07/18 14:02:15;;;;;;;2.67;1.82;;;;;;;28.50;28.47;100891.46;2176009;80;21126;-77
2022/07/18 14:05:17;;;;;;;2.83;1.70;;;;;;;28.44;28.67;100892.54;2171883;81;21549;-77
2022/07/18 14:08:18;;;;;;;3.08;1.90;;;;;;;28.48;28.82;100890.91;2175605;81;21421;-77
2022/07/18 14:11:19;;;;;;;5.75;1.72;;;;;;;28.46;29.02;100897.71;2170371;81;20922;-77
2022/07/18 14:14:20;;;;;;;2.70;1.62;;;;;;;28.51;29.29;100891.73;2144492;81;21063;-77
2022/07/18 14:17:21;;;;;;;4.75;2.05;;;;;;;28.48;29.43;100896.36;2175721;81;20964;-77
2022/07/18 14:20:23;;;;;;;2.90;1.90;;;;;;;28.50;29.90;100896.11;2174852;81;20977;-77
2022/07/18 14:23:24;;;;;;;3.77;1.45;;;;;;;28.46;30.29;100886.25;2173345;81;20983;-77
2022/07/18 14:26:25;;;;;;;2.50;1.67;;;;;;;28.49;30.43;100887.07;2171146;81;20970;-77
2022/07/18 14:29:26;;;;;;;2.65;1.80;;;;;;;28.52;30.10;100889.30;2179192;80;21022;-77
2022/07/18 14:32:28;;;;;;;4.65;2.05;;;;;;;28.49;29.87;100882.98;2150391;81;21088;-79
2022/07/18 14:35:29;;;;;;;2.85;1.72;;;;;;;28.56;29.85;100874.01;2186776;80;21492;-77
2022/07/18 14:38:30;;;;;;;5.12;1.90;;;;;;;28.55;29.66;100875.62;2189936;80;21007;-77
2022/07/18 14:41:31;;;;;;;3.25;1.55;;;;;;;28.51;29.58;100867.71;2190497;80;20987;-77